createdAt,value
2019-01-25T00:01:45.538Z,58.50
2019-01-25T00:04:46.198Z,57.80
2019-01-25T00:10:18.248Z,58.10
2019-01-25T00:15:54.603Z,57.80
2019-01-25T00:18:31.821Z,60.70
2019-01-25T00:21:12.372Z,62.60
2019-01-25T00:23:56.144Z,61.10
2019-01-25T00:26:37.915Z,59.90
2019-01-25T00:29:15.732Z,60.10
2019-01-25T00:31:53.595Z,63.50
2019-01-25T00:34:35.584Z,60.80
2019-01-25T00:37:17.190Z,58.20
2019-01-25T00:40:05.986Z,57.60
2019-01-25T00:42:47.998Z,57.50
2019-01-25T00:45:29.887Z,61.30
2019-01-25T00:48:10.313Z,63.20
2019-01-25T00:50:48.120Z,63.60
2019-01-25T00:53:28.939Z,64.10
2019-01-25T00:56:11.284Z,63.10
2019-01-25T00:58:48.954Z,63.00
2019-01-25T01:01:29.791Z,59.10
2019-01-25T01:04:07.900Z,59.70
2019-01-25T01:06:48.076Z,61.60
2019-01-25T01:09:26.735Z,63.40
2019-01-25T01:12:04.683Z,63.50
2019-01-25T01:14:43.546Z,64.00
2019-01-25T01:17:21.748Z,61.70
2019-01-25T01:20:00.967Z,62.60
2019-01-25T01:22:38.650Z,59.90
2019-01-25T01:25:18.875Z,62.80
2019-01-25T01:28:05.078Z,63.20
2019-01-25T01:30:44.128Z,65.90
2019-01-25T01:33:23.781Z,66.60
2019-01-25T01:36:01.304Z,65.70
2019-01-25T01:38:39.555Z,63.40
2019-01-25T01:41:19.363Z,64.60
2019-01-25T01:44:16.941Z,61.40
2019-01-25T01:46:56.625Z,61.00
2019-01-25T01:49:35.576Z,62.20
2019-01-25T01:52:28.761Z,64.60
2019-01-25T01:55:16.069Z,64.50
2019-01-25T01:57:53.647Z,64.10
2019-01-25T02:00:39.275Z,61.40
2019-01-25T02:03:21.224Z,61.20
2019-01-25T02:06:03.012Z,62.60
2019-01-25T02:13:51.769Z,62.20
2019-01-25T02:24:56.878Z,62.90
2019-01-25T02:27:37.003Z,62.10
2019-01-25T02:30:19.028Z,61.00
2019-01-25T02:32:57.088Z,60.00
2019-01-25T02:35:40.009Z,59.20
2019-01-25T02:38:21.383Z,59.50
2019-01-25T02:41:00.782Z,59.40
2019-01-25T02:44:21.664Z,60.80
2019-01-25T02:47:01.693Z,62.30
2019-01-25T02:49:47.844Z,60.50
2019-01-25T02:56:08.243Z,61.90
2019-01-25T02:58:55.659Z,60.80
2019-01-25T03:01:38.783Z,60.50
2019-01-25T03:04:19.316Z,59.80
2019-01-25T03:07:01.406Z,62.50
2019-01-25T03:09:41.574Z,63.50
2019-01-25T03:12:57.617Z,65.00
2019-01-25T03:15:37.872Z,65.20
2019-01-25T03:18:19.142Z,60.90
2019-01-25T03:21:02.426Z,63.70
2019-01-25T03:23:47.505Z,62.70
2019-01-25T03:26:28.681Z,60.30
2019-01-25T03:29:31.268Z,58.90
2019-01-25T03:32:11.574Z,59.50
2019-01-25T03:34:50.644Z,58.20
2019-01-25T03:37:30.790Z,58.50
2019-01-25T03:40:28.495Z,57.90
2019-01-25T03:43:07.391Z,59.90
2019-01-25T03:46:29.727Z,61.00
2019-01-25T03:49:09.044Z,58.40
2019-01-25T03:51:56.175Z,58.10
2019-01-25T03:55:09.666Z,59.40
2019-01-25T03:58:13.260Z,59.70
2019-01-25T04:00:52.972Z,59.40
2019-01-25T04:03:33.266Z,58.40
2019-01-25T04:06:12.677Z,57.60
2019-01-25T04:08:54.076Z,57.50
2019-01-25T04:11:33.705Z,56.60
2019-01-25T04:17:57.480Z,63.20
2019-01-25T04:20:38.692Z,59.90
2019-01-25T04:23:17.999Z,61.70
2019-01-25T04:26:00.610Z,59.20
2019-01-25T04:32:30.334Z,58.70
2019-01-25T04:35:11.832Z,57.70
2019-01-25T04:37:50.407Z,59.30
2019-01-25T04:55:11.081Z,57.20
2019-01-25T04:57:51.092Z,58.60
2019-01-25T05:00:32.540Z,57.00
2019-01-25T05:03:16.288Z,58.70
2019-01-25T05:05:57.866Z,59.80
2019-01-25T05:08:40.810Z,57.40
2019-01-25T05:11:39.247Z,58.90
2019-01-25T05:14:29.213Z,56.50
2019-01-25T05:17:14.476Z,55.90
2019-01-25T05:19:55.086Z,55.40
2019-01-25T05:22:38.816Z,56.50
2019-01-25T05:33:14.277Z,55.40
2019-01-25T05:35:58.449Z,57.10
2019-01-25T05:38:41.230Z,56.00
2019-01-25T05:41:32.910Z,54.80
2019-01-25T05:44:19.910Z,54.90
2019-01-25T05:47:03.015Z,57.00
2019-01-25T05:49:50.842Z,55.80
2019-01-25T05:52:33.074Z,55.30
2019-01-25T05:55:26.103Z,56.90
2019-01-25T05:58:09.596Z,55.10
2019-01-25T06:00:53.450Z,53.80
2019-01-25T06:03:45.934Z,52.50
2019-01-25T06:06:33.176Z,53.00
2019-01-25T06:09:19.209Z,54.80
2019-01-25T06:12:00.755Z,55.90
2019-01-25T06:14:42.634Z,54.50
2019-01-25T06:17:28.687Z,54.50
2019-01-25T06:20:11.084Z,54.50
2019-01-25T06:22:56.326Z,53.10
2019-01-25T06:25:38.657Z,53.50
2019-01-25T06:28:40.118Z,53.40
2019-01-25T06:35:02.228Z,54.20
2019-01-25T06:37:47.906Z,54.30
2019-01-25T06:40:30.930Z,52.10
2019-01-25T06:43:10.999Z,54.00
2019-01-25T06:45:53.022Z,51.30
2019-01-25T06:48:42.617Z,51.30
2019-01-25T06:55:31.197Z,53.10
2019-01-25T06:58:21.045Z,51.80
2019-01-25T07:01:20.950Z,50.80
2019-01-25T07:04:08.988Z,49.60
2019-01-25T07:07:03.032Z,50.50
2019-01-25T07:09:44.974Z,50.40
2019-01-25T07:12:25.130Z,54.20
2019-01-25T07:18:56.570Z,53.00
2019-01-25T07:22:41.990Z,52.70
2019-01-25T07:25:27.873Z,52.90
2019-01-25T07:28:16.483Z,51.20
2019-01-25T07:31:06.939Z,51.10
2019-01-25T07:34:04.216Z,51.90
2019-01-25T07:37:03.609Z,53.50
2019-01-25T07:39:59.706Z,52.30
2019-01-25T07:42:51.560Z,52.10
2019-01-25T07:45:34.102Z,49.40
2019-01-25T07:48:16.457Z,49.10
2019-01-25T07:50:59.747Z,48.60
2019-01-25T07:53:44.208Z,48.30
2019-01-25T07:56:24.101Z,48.20
2019-01-25T07:59:19.705Z,50.00
2019-01-25T08:02:14.956Z,50.10
2019-01-25T08:05:10.702Z,51.00
2019-01-25T08:08:08.914Z,50.80
2019-01-25T08:10:53.528Z,49.30
2019-01-25T08:13:45.841Z,48.70
2019-01-25T08:16:32.973Z,48.80
2019-01-25T08:19:51.241Z,50.80
2019-01-25T08:22:39.665Z,49.30
2019-01-25T08:25:37.354Z,48.40
2019-01-25T08:28:21.373Z,48.50
2019-01-25T08:31:05.704Z,48.20
2019-01-25T08:34:15.675Z,47.90
2019-01-25T08:37:23.234Z,48.10
2019-01-25T08:40:06.405Z,48.00
2019-01-25T08:43:05.840Z,47.80
2019-01-25T08:50:16.897Z,47.50
2019-01-25T08:57:14.968Z,50.30
2019-01-25T09:04:06.963Z,50.60
2019-01-25T09:07:26.617Z,51.70
2019-01-25T09:10:13.913Z,53.10
2019-01-25T09:12:55.624Z,52.70
2019-01-25T09:15:56.685Z,51.90
2019-01-25T09:18:36.293Z,50.80
2019-01-25T09:24:42.847Z,49.90
2019-01-25T09:27:31.029Z,50.10
2019-01-25T09:30:17.534Z,50.00
2019-01-25T09:33:07.293Z,49.90
2019-01-25T09:35:53.792Z,49.90
2019-01-25T09:38:52.960Z,51.30
2019-01-25T09:41:40.153Z,53.10
2019-01-25T09:44:27.119Z,53.10
2019-01-25T09:47:14.630Z,53.10
2019-01-25T09:49:58.360Z,51.90
2019-01-25T09:52:40.529Z,52.50
2019-01-25T09:55:32.006Z,52.80
2019-01-25T09:58:16.711Z,51.70
2019-01-25T10:01:31.429Z,52.90
2019-01-25T10:04:50.854Z,53.40
2019-01-25T10:07:42.600Z,54.40
2019-01-25T10:10:38.856Z,53.30
2019-01-25T10:14:09.500Z,53.50
2019-01-25T10:17:22.382Z,53.30
2019-01-25T10:34:31.119Z,55.90
2019-01-25T10:37:15.512Z,56.00
2019-01-25T10:40:21.123Z,55.80
2019-01-25T10:42:59.872Z,55.40
2019-01-25T10:45:41.913Z,55.50
2019-01-25T10:48:21.217Z,54.90
2019-01-25T10:51:00.555Z,55.20
2019-01-25T10:53:55.548Z,54.80
2019-01-25T10:56:41.819Z,55.40
2019-01-25T11:02:36.356Z,55.00
2019-01-25T11:05:19.695Z,53.40
2019-01-25T11:11:01.772Z,53.40
2019-01-25T11:13:41.827Z,54.80
2019-01-25T11:16:27.882Z,55.20
2019-01-25T11:19:08.255Z,55.10
2019-01-25T11:29:04.947Z,55.80
2019-01-25T11:31:55.757Z,55.30
2019-01-25T11:34:48.031Z,54.80
2019-01-25T11:37:29.749Z,55.90
2019-01-25T11:40:23.637Z,54.40
2019-01-25T11:43:08.450Z,55.00
2019-01-25T11:45:47.996Z,55.10
2019-01-25T11:48:32.887Z,54.40
2019-01-25T11:51:14.603Z,53.90
2019-01-25T11:54:01.522Z,54.40
2019-01-25T11:56:46.345Z,54.80
2019-01-25T11:59:32.745Z,53.60
2019-01-25T12:02:24.295Z,53.60
2019-01-25T12:05:12.024Z,53.10
2019-01-25T12:07:52.166Z,53.50
2019-01-25T12:10:35.525Z,53.20
2019-01-25T12:13:22.972Z,53.30
2019-01-25T12:16:04.961Z,53.10
2019-01-25T12:18:47.667Z,53.10
2019-01-25T12:21:44.405Z,53.00
2019-01-25T12:24:26.533Z,52.50
2019-01-25T12:27:14.014Z,52.60
2019-01-25T12:29:58.934Z,52.60
2019-01-25T12:32:44.121Z,52.70
2019-01-25T12:35:27.836Z,52.50
2019-01-25T12:38:11.759Z,52.60
2019-01-25T12:40:58.108Z,52.80
2019-01-25T12:43:42.643Z,52.60
2019-01-25T12:46:23.582Z,52.90
2019-01-25T12:49:11.714Z,52.80
2019-01-25T12:52:21.401Z,53.00
2019-01-25T12:55:07.869Z,52.40
2019-01-25T12:57:57.214Z,53.00
2019-01-25T13:00:57.280Z,52.90
2019-01-25T13:03:42.757Z,53.60
2019-01-25T13:06:34.713Z,52.50
2019-01-25T13:09:20.331Z,52.20
2019-01-25T13:12:30.485Z,51.80
2019-01-25T13:15:18.544Z,51.00
2019-01-25T13:18:13.471Z,50.80
2019-01-25T13:21:04.220Z,51.00
2019-01-25T13:23:43.692Z,51.10
2019-01-25T13:26:44.293Z,50.60
2019-01-25T13:29:48.759Z,50.70
2019-01-25T13:32:40.298Z,50.50
2019-01-25T13:35:42.406Z,49.50
2019-01-25T13:38:37.228Z,49.00
2019-01-25T13:41:27.478Z,48.70
2019-01-25T13:44:42.092Z,48.90
2019-01-25T13:47:45.975Z,49.10
2019-01-25T13:50:38.422Z,48.50
2019-01-25T13:53:31.558Z,47.90
2019-01-25T13:56:34.874Z,48.00
2019-01-25T13:59:39.906Z,48.40
2019-01-25T14:02:52.009Z,48.70
2019-01-25T14:05:35.512Z,48.80
2019-01-25T14:08:38.431Z,48.90
2019-01-25T14:11:17.596Z,49.00
2019-01-25T14:14:06.811Z,49.00
2019-01-25T14:16:46.900Z,49.00
2019-01-25T14:19:32.937Z,49.00
2019-01-25T14:22:20.187Z,49.00
2019-01-25T14:25:03.439Z,49.30
2019-01-25T14:27:44.543Z,49.40
2019-01-25T14:30:36.443Z,49.40
2019-01-25T14:33:32.660Z,49.50
2019-01-25T14:36:16.714Z,49.50
2019-01-25T14:38:54.664Z,49.60
2019-01-25T14:41:39.826Z,49.70
2019-01-25T14:44:29.952Z,49.70
2019-01-25T14:47:13.508Z,49.80
2019-01-25T14:49:55.966Z,50.00
2019-01-25T14:52:38.129Z,50.00
2019-01-25T14:58:18.291Z,50.10
2019-01-25T15:01:08.123Z,50.20
2019-01-25T15:03:52.201Z,50.30
2019-01-25T15:06:35.719Z,50.40
2019-01-25T15:09:23.182Z,50.50
2019-01-25T15:12:14.748Z,50.40
2019-01-25T15:14:53.629Z,50.70
2019-01-25T15:17:33.770Z,50.60
2019-01-25T15:20:32.196Z,50.70
2019-01-25T15:23:13.049Z,50.30
2019-01-25T15:25:59.685Z,50.20
2019-01-25T15:28:43.133Z,50.20
2019-01-25T15:31:30.770Z,50.30
2019-01-25T15:34:14.800Z,50.30
2019-01-25T15:36:59.606Z,50.30
2019-01-25T15:39:48.189Z,50.30
2019-01-25T15:42:28.527Z,50.40
2019-01-25T15:48:17.447Z,50.60
2019-01-25T15:51:01.108Z,51.50
2019-01-25T15:53:49.181Z,51.00
2019-01-25T15:56:32.706Z,51.00
2019-01-25T15:59:16.626Z,51.20
2019-01-25T16:01:56.660Z,51.30
2019-01-25T16:04:43.009Z,51.40
2019-01-25T16:07:24.242Z,51.50
2019-01-25T16:10:04.404Z,51.70
2019-01-25T16:12:50.979Z,51.70
2019-01-25T16:15:41.955Z,51.90
2019-01-25T16:18:51.280Z,52.00
2019-01-25T16:21:30.722Z,52.10
2019-01-25T16:24:32.044Z,52.20
2019-01-25T16:27:20.228Z,52.20
2019-01-25T16:33:07.248Z,52.10
2019-01-25T16:35:45.595Z,52.30
2019-01-25T16:38:29.188Z,52.50
2019-01-25T16:41:19.280Z,52.60
2019-01-25T16:43:59.788Z,52.80
2019-01-25T16:46:45.237Z,52.90
2019-01-25T16:49:28.721Z,52.90
2019-01-25T16:52:15.122Z,53.00
2019-01-25T16:55:01.792Z,53.10
2019-01-25T16:57:45.482Z,53.10
2019-01-25T17:00:45.371Z,53.30
2019-01-25T17:03:31.230Z,53.40
2019-01-25T17:06:11.976Z,53.50
2019-01-25T17:09:06.200Z,53.40
2019-01-25T17:11:46.690Z,53.60
2019-01-25T17:14:33.148Z,53.40
2019-01-25T17:17:08.883Z,53.40
2019-01-25T17:19:49.439Z,53.50
2019-01-25T17:22:29.321Z,53.40
2019-01-25T17:25:07.435Z,54.10
2019-01-25T17:27:50.511Z,53.50
2019-01-25T17:30:35.446Z,53.60
2019-01-25T17:33:14.786Z,53.60
2019-01-25T17:35:51.849Z,53.70
2019-01-25T17:38:30.030Z,53.70
2019-01-25T17:41:13.181Z,53.80
2019-01-25T17:43:51.433Z,53.80
2019-01-25T17:46:30.264Z,53.80
2019-01-25T17:49:08.149Z,54.00
2019-01-25T17:51:47.688Z,54.00
2019-01-25T17:54:27.725Z,54.00
2019-01-25T17:57:05.956Z,53.90
2019-01-25T17:59:53.188Z,53.80
2019-01-25T18:02:32.201Z,54.00
2019-01-25T18:05:11.321Z,54.30
2019-01-25T18:07:50.175Z,54.40
2019-01-25T18:10:32.052Z,54.50
2019-01-25T18:13:11.613Z,54.50
2019-01-25T18:15:49.990Z,54.60
2019-01-25T18:18:33.016Z,54.80
2019-01-25T18:21:13.067Z,54.90
2019-01-25T18:23:52.648Z,54.90
2019-01-25T18:26:32.651Z,54.90
2019-01-25T18:29:19.877Z,55.10
2019-01-25T18:31:59.306Z,55.20
2019-01-25T18:34:37.553Z,55.20
2019-01-25T18:37:17.377Z,55.20
2019-01-25T18:39:54.974Z,55.30
2019-01-25T18:42:33.993Z,55.40
2019-01-25T18:45:13.985Z,55.20
2019-01-25T18:47:52.370Z,55.20
2019-01-25T18:50:30.504Z,55.00
2019-01-25T18:53:08.455Z,55.00
2019-01-25T18:55:47.952Z,55.10
2019-01-25T18:58:25.392Z,55.20
2019-01-25T19:01:03.365Z,55.30
2019-01-25T19:03:42.017Z,55.50
2019-01-25T19:06:20.899Z,55.50
2019-01-25T19:08:59.066Z,55.80
2019-01-25T19:11:39.939Z,55.80
2019-01-25T19:14:19.450Z,55.90
2019-01-25T19:16:59.701Z,55.90
2019-01-25T19:19:38.544Z,56.00
2019-01-25T19:22:15.889Z,56.00
2019-01-25T19:24:57.190Z,55.70
2019-01-25T19:27:37.348Z,55.60
2019-01-25T19:30:22.414Z,55.40
2019-01-25T19:33:04.244Z,54.80
2019-01-25T19:35:42.668Z,54.70
2019-01-25T19:38:24.839Z,54.50
2019-01-25T19:41:05.159Z,54.30
2019-01-25T19:43:44.153Z,54.40
2019-01-25T19:46:21.398Z,54.40
2019-01-25T19:49:00.680Z,54.20
2019-01-25T19:51:38.080Z,54.50
2019-01-25T19:54:16.076Z,54.70
2019-01-25T19:56:53.913Z,55.60
2019-01-25T19:59:32.112Z,55.20
2019-01-25T20:02:10.188Z,55.20
2019-01-25T20:04:49.754Z,55.10
2019-01-25T20:07:28.340Z,55.00
2019-01-25T20:10:08.711Z,55.20
2019-01-25T20:12:47.942Z,55.40
2019-01-25T20:15:27.438Z,55.40
2019-01-25T20:18:08.819Z,55.50
2019-01-25T20:20:47.049Z,55.70
2019-01-25T20:23:24.553Z,55.60
2019-01-25T20:26:03.433Z,55.40
2019-01-25T20:28:41.637Z,55.20
2019-01-25T20:31:19.324Z,55.20
2019-01-25T20:33:56.520Z,55.00
2019-01-25T20:36:36.787Z,55.10
2019-01-25T20:39:15.009Z,54.80
2019-01-25T20:41:53.647Z,54.80
2019-01-25T20:44:32.389Z,54.70
2019-01-25T20:47:12.688Z,54.70
2019-01-25T20:49:49.731Z,54.60
2019-01-25T20:52:33.424Z,54.70
2019-01-25T20:55:12.943Z,54.50
2019-01-25T20:57:51.862Z,54.60
2019-01-25T21:00:37.377Z,54.60
2019-01-25T21:03:17.215Z,54.50
2019-01-25T21:05:54.438Z,55.00
2019-01-25T21:08:31.987Z,54.50
2019-01-25T21:11:13.531Z,54.30
2019-01-25T21:13:50.640Z,54.20
2019-01-25T21:16:29.553Z,54.10
2019-01-25T21:19:12.258Z,54.00
2019-01-25T21:21:50.694Z,54.00
2019-01-25T21:24:29.221Z,54.10
2019-01-25T21:27:07.327Z,54.20
2019-01-25T21:29:44.864Z,54.00
2019-01-25T21:32:22.201Z,54.10
2019-01-25T21:35:01.662Z,54.00
2019-01-25T21:37:40.265Z,54.10
2019-01-25T21:40:20.885Z,54.00
2019-01-25T21:42:58.372Z,54.20
2019-01-25T21:45:43.274Z,54.00
2019-01-25T21:48:20.566Z,54.10
2019-01-25T21:51:01.138Z,54.20
2019-01-25T21:53:38.492Z,54.40
2019-01-25T21:56:16.802Z,54.30
2019-01-25T21:58:54.147Z,54.50
2019-01-25T22:01:32.482Z,54.50
2019-01-25T22:04:10.201Z,54.60
2019-01-25T22:06:52.249Z,54.20
2019-01-25T22:09:30.423Z,54.30
2019-01-25T22:12:07.920Z,54.40
2019-01-25T22:14:46.896Z,54.30
2019-01-25T22:17:26.207Z,54.40
2019-01-25T22:20:06.394Z,54.60
2019-01-25T22:22:44.193Z,54.40
2019-01-25T22:25:21.990Z,54.60
2019-01-25T22:28:02.716Z,54.50
2019-01-25T22:30:40.598Z,54.50
2019-01-25T22:33:19.296Z,54.70
2019-01-25T22:35:58.087Z,54.80
2019-01-25T22:38:35.788Z,54.70
2019-01-25T22:41:14.638Z,54.80
2019-01-25T22:43:52.854Z,54.90
2019-01-25T22:46:30.610Z,55.10
2019-01-25T22:49:08.911Z,55.10
2019-01-25T22:51:46.978Z,55.10
2019-01-25T22:54:24.156Z,55.10
2019-01-25T22:57:02.172Z,55.10
2019-01-25T22:59:41.803Z,55.60
2019-01-25T23:02:20.138Z,55.70
2019-01-25T23:05:24.307Z,55.20
2019-01-25T23:08:03.251Z,55.10
2019-01-25T23:10:40.849Z,55.10
2019-01-25T23:13:20.240Z,55.40
2019-01-25T23:16:06.339Z,55.20
2019-01-25T23:18:39.876Z,55.10
2019-01-25T23:21:17.163Z,55.10
2019-01-25T23:23:58.026Z,59.60
2019-01-25T23:26:37.384Z,59.60
2019-01-25T23:29:15.216Z,59.20
2019-01-25T23:31:52.349Z,57.30
2019-01-25T23:34:30.811Z,56.20
2019-01-25T23:37:08.871Z,57.20
2019-01-25T23:39:46.704Z,57.50
2019-01-25T23:42:24.797Z,56.10
2019-01-25T23:45:01.311Z,55.70
2019-01-25T23:47:38.649Z,55.70
2019-01-25T23:50:18.702Z,56.50
2019-01-25T23:52:57.557Z,55.50
2019-01-25T23:55:34.931Z,58.20
2019-01-25T23:58:14.455Z,59.40
